sensor_id;sensor_type;location;lat;lon;timestamp;P1;durP1;ratioP1;P2;durP2;ratioP2
31424;SDS011;18054;51.572;7.372;2022-08-19T00:02:15;12.60;;;8.15;;
31424;SDS011;18054;51.572;7.372;2022-08-19T00:04:43;16.55;;;8.70;;
31424;SDS011;18054;51.572;7.372;2022-08-19T00:07:13;16.77;;;8.70;;
31424;SDS011;18054;51.572;7.372;2022-08-19T00:09:40;12.23;;;8.23;;
31424;SDS011;18054;51.572;7.372;2022-08-19T00:12:08;14.05;;;8.63;;
31424;SDS011;18054;51.572;7.372;2022-08-19T00:14:36;13.60;;;8.38;;
31424;SDS011;18054;51.572;7.372;2022-08-19T00:17:05;16.38;;;8.65;;
31424;SDS011;18054;51.572;7.372;2022-08-19T00:19:33;16.30;;;8.75;;
31424;SDS011;18054;51.572;7.372;2022-08-19T00:22:01;14.45;;;8.90;;
31424;SDS011;18054;51.572;7.372;2022-08-19T00:24:29;13.63;;;8.38;;
31424;SDS011;18054;51.572;7.372;2022-08-19T00:26:56;13.77;;;7.90;;
31424;SDS011;18054;51.572;7.372;2022-08-19T00:32:13;13.18;;;9.13;;
31424;SDS011;18054;51.572;7.372;2022-08-19T00:34:43;10.82;;;8.05;;
31424;SDS011;18054;51.572;7.372;2022-08-19T00:37:10;14.07;;;8.63;;
31424;SDS011;18054;51.572;7.372;2022-08-19T00:42:06;16.00;;;8.63;;
31424;SDS011;18054;51.572;7.372;2022-08-19T00:44:33;13.00;;;9.25;;
31424;SDS011;18054;51.572;7.372;2022-08-19T00:49:31;14.65;;;9.75;;
31424;SDS011;18054;51.572;7.372;2022-08-19T00:52:03;14.77;;;8.85;;
31424;SDS011;18054;51.572;7.372;2022-08-19T00:54:31;13.10;;;8.60;;
31424;SDS011;18054;51.572;7.372;2022-08-19T00:56:59;11.30;;;8.32;;
31424;SDS011;18054;51.572;7.372;2022-08-19T00:59:29;13.35;;;9.35;;
31424;SDS011;18054;51.572;7.372;2022-08-19T01:02:16;16.65;;;9.85;;
31424;SDS011;18054;51.572;7.372;2022-08-19T01:07:13;12.20;;;8.05;;
31424;SDS011;18054;51.572;7.372;2022-08-19T01:09:44;13.02;;;8.52;;
31424;SDS011;18054;51.572;7.372;2022-08-19T01:12:12;13.30;;;9.70;;
31424;SDS011;18054;51.572;7.372;2022-08-19T01:14:40;14.90;;;9.20;;
31424;SDS011;18054;51.572;7.372;2022-08-19T01:17:08;13.05;;;8.85;;
31424;SDS011;18054;51.572;7.372;2022-08-19T01:19:37;12.93;;;8.88;;
31424;SDS011;18054;51.572;7.372;2022-08-19T01:22:11;14.63;;;9.48;;
31424;SDS011;18054;51.572;7.372;2022-08-19T01:24:43;14.27;;;9.23;;
31424;SDS011;18054;51.572;7.372;2022-08-19T01:27:15;10.68;;;8.00;;
31424;SDS011;18054;51.572;7.372;2022-08-19T01:32:11;17.02;;;9.20;;
31424;SDS011;18054;51.572;7.372;2022-08-19T01:34:58;13.98;;;8.13;;
31424;SDS011;18054;51.572;7.372;2022-08-19T01:37:27;16.33;;;9.45;;
31424;SDS011;18054;51.572;7.372;2022-08-19T01:39:56;16.45;;;9.73;;
31424;SDS011;18054;51.572;7.372;2022-08-19T01:42:24;11.55;;;8.05;;
31424;SDS011;18054;51.572;7.372;2022-08-19T01:44:56;12.45;;;9.07;;
31424;SDS011;18054;51.572;7.372;2022-08-19T01:47:23;13.50;;;8.73;;
31424;SDS011;18054;51.572;7.372;2022-08-19T01:49:51;13.57;;;9.05;;
31424;SDS011;18054;51.572;7.372;2022-08-19T01:52:18;12.55;;;8.88;;
31424;SDS011;18054;51.572;7.372;2022-08-19T01:54:46;11.80;;;9.07;;
31424;SDS011;18054;51.572;7.372;2022-08-19T01:57:15;11.18;;;8.30;;
31424;SDS011;18054;51.572;7.372;2022-08-19T01:59:42;13.20;;;9.23;;
31424;SDS011;18054;51.572;7.372;2022-08-19T02:02:11;15.07;;;8.77;;
31424;SDS011;18054;51.572;7.372;2022-08-19T02:04:39;12.13;;;9.50;;
31424;SDS011;18054;51.572;7.372;2022-08-19T02:07:07;16.42;;;8.95;;
31424;SDS011;18054;51.572;7.372;2022-08-19T02:09:35;12.60;;;8.93;;
31424;SDS011;18054;51.572;7.372;2022-08-19T02:12:02;13.52;;;8.98;;
31424;SDS011;18054;51.572;7.372;2022-08-19T02:14:31;13.98;;;9.75;;
31424;SDS011;18054;51.572;7.372;2022-08-19T02:17:00;15.05;;;9.55;;
31424;SDS011;18054;51.572;7.372;2022-08-19T02:19:28;13.82;;;9.27;;
31424;SDS011;18054;51.572;7.372;2022-08-19T02:21:58;13.15;;;9.13;;
31424;SDS011;18054;51.572;7.372;2022-08-19T02:24:26;15.30;;;9.90;;
31424;SDS011;18054;51.572;7.372;2022-08-19T02:29:21;12.55;;;9.13;;
31424;SDS011;18054;51.572;7.372;2022-08-19T02:31:50;11.32;;;8.90;;
31424;SDS011;18054;51.572;7.372;2022-08-19T02:34:18;14.30;;;9.18;;
31424;SDS011;18054;51.572;7.372;2022-08-19T02:36:45;19.05;;;9.65;;
31424;SDS011;18054;51.572;7.372;2022-08-19T02:39:17;17.85;;;8.38;;
31424;SDS011;18054;51.572;7.372;2022-08-19T02:41:44;15.23;;;10.25;;
31424;SDS011;18054;51.572;7.372;2022-08-19T02:44:11;16.67;;;8.57;;
31424;SDS011;18054;51.572;7.372;2022-08-19T02:46:57;12.65;;;9.20;;
31424;SDS011;18054;51.572;7.372;2022-08-19T02:49:24;11.88;;;8.27;;
31424;SDS011;18054;51.572;7.372;2022-08-19T02:51:52;12.55;;;8.73;;
31424;SDS011;18054;51.572;7.372;2022-08-19T02:54:20;14.68;;;8.85;;
31424;SDS011;18054;51.572;7.372;2022-08-19T02:56:47;19.23;;;8.75;;
31424;SDS011;18054;51.572;7.372;2022-08-19T02:59:15;14.38;;;10.05;;
31424;SDS011;18054;51.572;7.372;2022-08-19T03:01:46;17.42;;;10.00;;
31424;SDS011;18054;51.572;7.372;2022-08-19T03:04:15;15.95;;;9.82;;
31424;SDS011;18054;51.572;7.372;2022-08-19T03:06:43;17.17;;;9.32;;
31424;SDS011;18054;51.572;7.372;2022-08-19T03:09:11;13.82;;;10.00;;
31424;SDS011;18054;51.572;7.372;2022-08-19T03:11:38;11.45;;;9.00;;
31424;SDS011;18054;51.572;7.372;2022-08-19T03:14:07;15.23;;;9.27;;
31424;SDS011;18054;51.572;7.372;2022-08-19T03:16:36;12.90;;;10.00;;
31424;SDS011;18054;51.572;7.372;2022-08-19T03:19:08;13.27;;;9.50;;
31424;SDS011;18054;51.572;7.372;2022-08-19T03:21:37;14.02;;;10.55;;
31424;SDS011;18054;51.572;7.372;2022-08-19T03:24:05;12.20;;;9.02;;
31424;SDS011;18054;51.572;7.372;2022-08-19T03:26:33;13.20;;;9.60;;
31424;SDS011;18054;51.572;7.372;2022-08-19T03:29:01;14.75;;;9.32;;
31424;SDS011;18054;51.572;7.372;2022-08-19T03:31:31;13.43;;;8.57;;
31424;SDS011;18054;51.572;7.372;2022-08-19T03:34:17;13.55;;;9.00;;
31424;SDS011;18054;51.572;7.372;2022-08-19T03:36:47;14.98;;;9.50;;
31424;SDS011;18054;51.572;7.372;2022-08-19T03:39:14;13.10;;;8.70;;
31424;SDS011;18054;51.572;7.372;2022-08-19T03:44:12;14.73;;;9.40;;
31424;SDS011;18054;51.572;7.372;2022-08-19T03:46:44;14.75;;;9.05;;
31424;SDS011;18054;51.572;7.372;2022-08-19T03:49:12;14.63;;;10.15;;
31424;SDS011;18054;51.572;7.372;2022-08-19T03:54:10;24.55;;;10.02;;
31424;SDS011;18054;51.572;7.372;2022-08-19T03:56:39;21.55;;;11.00;;
31424;SDS011;18054;51.572;7.372;2022-08-19T03:59:08;17.92;;;10.20;;
31424;SDS011;18054;51.572;7.372;2022-08-19T04:01:35;15.05;;;9.88;;
31424;SDS011;18054;51.572;7.372;2022-08-19T04:04:03;12.82;;;9.60;;
31424;SDS011;18054;51.572;7.372;2022-08-19T04:06:33;19.42;;;10.75;;
31424;SDS011;18054;51.572;7.372;2022-08-19T04:09:06;18.98;;;10.27;;
31424;SDS011;18054;51.572;7.372;2022-08-19T04:11:37;30.45;;;11.25;;
31424;SDS011;18054;51.572;7.372;2022-08-19T04:14:09;23.92;;;10.98;;
31424;SDS011;18054;51.572;7.372;2022-08-19T04:16:37;21.02;;;10.85;;
31424;SDS011;18054;51.572;7.372;2022-08-19T04:19:05;15.85;;;10.45;;
31424;SDS011;18054;51.572;7.372;2022-08-19T04:21:33;14.98;;;10.02;;
31424;SDS011;18054;51.572;7.372;2022-08-19T04:24:01;19.50;;;9.55;;
31424;SDS011;18054;51.572;7.372;2022-08-19T04:28:59;17.40;;;9.23;;
31424;SDS011;18054;51.572;7.372;2022-08-19T04:31:28;12.77;;;9.43;;
31424;SDS011;18054;51.572;7.372;2022-08-19T04:33:56;17.88;;;9.98;;
31424;SDS011;18054;51.572;7.372;2022-08-19T04:36:24;20.17;;;9.65;;
31424;SDS011;18054;51.572;7.372;2022-08-19T04:38:53;23.17;;;10.07;;
31424;SDS011;18054;51.572;7.372;2022-08-19T04:41:20;20.88;;;9.57;;
31424;SDS011;18054;51.572;7.372;2022-08-19T04:44:07;25.13;;;11.50;;
31424;SDS011;18054;51.572;7.372;2022-08-19T04:46:35;27.20;;;10.88;;
31424;SDS011;18054;51.572;7.372;2022-08-19T04:49:05;17.13;;;11.07;;
31424;SDS011;18054;51.572;7.372;2022-08-19T04:51:39;21.17;;;10.35;;
31424;SDS011;18054;51.572;7.372;2022-08-19T04:54:07;19.48;;;10.60;;
31424;SDS011;18054;51.572;7.372;2022-08-19T04:56:35;25.77;;;11.73;;
31424;SDS011;18054;51.572;7.372;2022-08-19T04:59:02;20.52;;;11.40;;
31424;SDS011;18054;51.572;7.372;2022-08-19T05:04:00;25.40;;;11.10;;
31424;SDS011;18054;51.572;7.372;2022-08-19T05:06:28;17.50;;;11.82;;
31424;SDS011;18054;51.572;7.372;2022-08-19T05:08:59;24.88;;;12.75;;
31424;SDS011;18054;51.572;7.372;2022-08-19T05:11:27;19.80;;;10.63;;
31424;SDS011;18054;51.572;7.372;2022-08-19T05:13:55;17.65;;;11.20;;
31424;SDS011;18054;51.572;7.372;2022-08-19T05:16:23;21.98;;;12.38;;
31424;SDS011;18054;51.572;7.372;2022-08-19T05:18:51;30.80;;;11.95;;
31424;SDS011;18054;51.572;7.372;2022-08-19T05:21:38;20.77;;;11.20;;
31424;SDS011;18054;51.572;7.372;2022-08-19T05:24:23;25.70;;;11.23;;
31424;SDS011;18054;51.572;7.372;2022-08-19T05:26:51;16.15;;;8.98;;
31424;SDS011;18054;51.572;7.372;2022-08-19T05:29:23;22.15;;;10.60;;
31424;SDS011;18054;51.572;7.372;2022-08-19T05:31:57;15.35;;;9.75;;
31424;SDS011;18054;51.572;7.372;2022-08-19T05:34:25;17.25;;;11.32;;
31424;SDS011;18054;51.572;7.372;2022-08-19T05:36:55;16.77;;;10.35;;
31424;SDS011;18054;51.572;7.372;2022-08-19T05:39:24;20.63;;;11.57;;
31424;SDS011;18054;51.572;7.372;2022-08-19T05:41:52;20.00;;;12.48;;
31424;SDS011;18054;51.572;7.372;2022-08-19T05:44:20;33.08;;;12.20;;
31424;SDS011;18054;51.572;7.372;2022-08-19T05:49:19;23.65;;;13.43;;
31424;SDS011;18054;51.572;7.372;2022-08-19T05:51:47;21.15;;;13.50;;
31424;SDS011;18054;51.572;7.372;2022-08-19T05:54:17;29.63;;;13.75;;
31424;SDS011;18054;51.572;7.372;2022-08-19T05:56:45;22.20;;;12.82;;
31424;SDS011;18054;51.572;7.372;2022-08-19T05:59:14;22.70;;;13.50;;
31424;SDS011;18054;51.572;7.372;2022-08-19T06:01:45;25.65;;;16.20;;
31424;SDS011;18054;51.572;7.372;2022-08-19T06:04:16;22.60;;;16.02;;
31424;SDS011;18054;51.572;7.372;2022-08-19T06:06:44;25.40;;;16.35;;
31424;SDS011;18054;51.572;7.372;2022-08-19T06:09:12;30.88;;;18.10;;
31424;SDS011;18054;51.572;7.372;2022-08-19T06:11:41;31.88;;;17.38;;
31424;SDS011;18054;51.572;7.372;2022-08-19T06:14:11;29.50;;;18.52;;
31424;SDS011;18054;51.572;7.372;2022-08-19T06:16:42;34.15;;;17.73;;
31424;SDS011;18054;51.572;7.372;2022-08-19T06:21:38;40.08;;;21.45;;
31424;SDS011;18054;51.572;7.372;2022-08-19T06:24:07;26.48;;;19.27;;
31424;SDS011;18054;51.572;7.372;2022-08-19T06:26:35;32.10;;;20.70;;
31424;SDS011;18054;51.572;7.372;2022-08-19T06:29:05;38.97;;;21.60;;
31424;SDS011;18054;51.572;7.372;2022-08-19T06:31:34;41.75;;;21.15;;
31424;SDS011;18054;51.572;7.372;2022-08-19T06:34:03;28.55;;;21.02;;
31424;SDS011;18054;51.572;7.372;2022-08-19T06:36:31;34.22;;;21.13;;
31424;SDS011;18054;51.572;7.372;2022-08-19T06:39:00;29.45;;;21.42;;
31424;SDS011;18054;51.572;7.372;2022-08-19T06:41:28;38.75;;;22.23;;
31424;SDS011;18054;51.572;7.372;2022-08-19T06:43:56;36.83;;;22.42;;
31424;SDS011;18054;51.572;7.372;2022-08-19T06:46:25;31.77;;;22.58;;
31424;SDS011;18054;51.572;7.372;2022-08-19T06:48:54;28.85;;;20.40;;
31424;SDS011;18054;51.572;7.372;2022-08-19T06:51:21;39.38;;;23.42;;
31424;SDS011;18054;51.572;7.372;2022-08-19T06:53:50;33.25;;;21.95;;
31424;SDS011;18054;51.572;7.372;2022-08-19T06:56:19;33.40;;;20.92;;
31424;SDS011;18054;51.572;7.372;2022-08-19T06:58:47;32.78;;;20.35;;
31424;SDS011;18054;51.572;7.372;2022-08-19T07:01:19;37.22;;;21.83;;
31424;SDS011;18054;51.572;7.372;2022-08-19T07:03:48;34.33;;;21.88;;
31424;SDS011;18054;51.572;7.372;2022-08-19T07:06:16;34.13;;;22.23;;
31424;SDS011;18054;51.572;7.372;2022-08-19T07:09:06;37.28;;;23.48;;
31424;SDS011;18054;51.572;7.372;2022-08-19T07:11:34;35.75;;;21.55;;
31424;SDS011;18054;51.572;7.372;2022-08-19T07:14:02;33.42;;;21.45;;
31424;SDS011;18054;51.572;7.372;2022-08-19T07:16:30;30.88;;;21.60;;
31424;SDS011;18054;51.572;7.372;2022-08-19T07:18:59;42.67;;;21.20;;
31424;SDS011;18054;51.572;7.372;2022-08-19T07:21:41;40.72;;;21.38;;
31424;SDS011;18054;51.572;7.372;2022-08-19T07:24:08;41.10;;;20.42;;
31424;SDS011;18054;51.572;7.372;2022-08-19T07:26:37;27.25;;;19.85;;
31424;SDS011;18054;51.572;7.372;2022-08-19T07:29:07;36.75;;;19.98;;
31424;SDS011;18054;51.572;7.372;2022-08-19T07:31:35;31.30;;;18.38;;
31424;SDS011;18054;51.572;7.372;2022-08-19T07:34:05;33.53;;;19.30;;
31424;SDS011;18054;51.572;7.372;2022-08-19T07:36:34;27.02;;;18.15;;
31424;SDS011;18054;51.572;7.372;2022-08-19T07:39:03;35.45;;;17.83;;
31424;SDS011;18054;51.572;7.372;2022-08-19T07:41:31;30.20;;;16.48;;
31424;SDS011;18054;51.572;7.372;2022-08-19T07:43:59;26.58;;;16.77;;
31424;SDS011;18054;51.572;7.372;2022-08-19T07:46:30;23.67;;;15.02;;
31424;SDS011;18054;51.572;7.372;2022-08-19T07:48:57;24.23;;;15.32;;
31424;SDS011;18054;51.572;7.372;2022-08-19T07:51:28;24.52;;;14.48;;
31424;SDS011;18054;51.572;7.372;2022-08-19T07:54:02;30.65;;;15.25;;
31424;SDS011;18054;51.572;7.372;2022-08-19T07:56:30;27.48;;;13.75;;
31424;SDS011;18054;51.572;7.372;2022-08-19T07:58:57;24.63;;;14.32;;
31424;SDS011;18054;51.572;7.372;2022-08-19T08:01:26;17.40;;;11.40;;
31424;SDS011;18054;51.572;7.372;2022-08-19T08:03:54;23.17;;;12.82;;
31424;SDS011;18054;51.572;7.372;2022-08-19T08:06:41;17.83;;;11.88;;
31424;SDS011;18054;51.572;7.372;2022-08-19T08:09:27;25.58;;;12.10;;
31424;SDS011;18054;51.572;7.372;2022-08-19T08:11:56;21.58;;;11.23;;
31424;SDS011;18054;51.572;7.372;2022-08-19T08:14:31;15.77;;;10.95;;
31424;SDS011;18054;51.572;7.372;2022-08-19T08:17:01;22.33;;;12.27;;
31424;SDS011;18054;51.572;7.372;2022-08-19T08:19:36;27.67;;;11.98;;
31424;SDS011;18054;51.572;7.372;2022-08-19T08:22:06;22.17;;;11.82;;
31424;SDS011;18054;51.572;7.372;2022-08-19T08:24:34;19.48;;;10.75;;
31424;SDS011;18054;51.572;7.372;2022-08-19T08:27:02;16.70;;;10.90;;
31424;SDS011;18054;51.572;7.372;2022-08-19T08:29:36;15.35;;;10.82;;
31424;SDS011;18054;51.572;7.372;2022-08-19T08:32:04;24.73;;;11.65;;
31424;SDS011;18054;51.572;7.372;2022-08-19T08:34:40;19.25;;;12.35;;
31424;SDS011;18054;51.572;7.372;2022-08-19T08:37:09;25.75;;;13.73;;
31424;SDS011;18054;51.572;7.372;2022-08-19T08:39:36;18.48;;;11.85;;
31424;SDS011;18054;51.572;7.372;2022-08-19T08:42:05;19.42;;;12.48;;
31424;SDS011;18054;51.572;7.372;2022-08-19T08:44:39;18.88;;;12.30;;
31424;SDS011;18054;51.572;7.372;2022-08-19T08:47:11;25.08;;;13.18;;
31424;SDS011;18054;51.572;7.372;2022-08-19T08:49:41;24.98;;;14.63;;
31424;SDS011;18054;51.572;7.372;2022-08-19T08:52:16;26.60;;;14.50;;
31424;SDS011;18054;51.572;7.372;2022-08-19T08:54:46;22.73;;;15.23;;
31424;SDS011;18054;51.572;7.372;2022-08-19T08:57:23;21.85;;;12.05;;
31424;SDS011;18054;51.572;7.372;2022-08-19T08:59:55;21.85;;;12.07;;
31424;SDS011;18054;51.572;7.372;2022-08-19T09:02:24;19.83;;;13.85;;
31424;SDS011;18054;51.572;7.372;2022-08-19T09:04:53;22.90;;;14.35;;
31424;SDS011;18054;51.572;7.372;2022-08-19T09:07:38;20.77;;;14.98;;
31424;SDS011;18054;51.572;7.372;2022-08-19T09:10:14;22.10;;;14.05;;
31424;SDS011;18054;51.572;7.372;2022-08-19T09:12:46;17.63;;;13.40;;
31424;SDS011;18054;51.572;7.372;2022-08-19T09:15:16;17.27;;;12.00;;
31424;SDS011;18054;51.572;7.372;2022-08-19T09:17:58;25.83;;;12.20;;
31424;SDS011;18054;51.572;7.372;2022-08-19T09:20:27;22.33;;;13.43;;
31424;SDS011;18054;51.572;7.372;2022-08-19T09:25:24;17.33;;;12.30;;
31424;SDS011;18054;51.572;7.372;2022-08-19T09:27:55;18.88;;;10.80;;
31424;SDS011;18054;51.572;7.372;2022-08-19T09:30:29;21.77;;;9.27;;
31424;SDS011;18054;51.572;7.372;2022-08-19T09:32:58;19.20;;;9.70;;
31424;SDS011;18054;51.572;7.372;2022-08-19T09:35:26;25.30;;;10.07;;
31424;SDS011;18054;51.572;7.372;2022-08-19T09:37:55;25.42;;;10.00;;
31424;SDS011;18054;51.572;7.372;2022-08-19T09:40:26;15.45;;;11.05;;
31424;SDS011;18054;51.572;7.372;2022-08-19T09:42:56;15.88;;;10.70;;
31424;SDS011;18054;51.572;7.372;2022-08-19T09:45:38;17.40;;;10.35;;
31424;SDS011;18054;51.572;7.372;2022-08-19T09:48:06;20.30;;;10.23;;
31424;SDS011;18054;51.572;7.372;2022-08-19T09:50:37;15.82;;;9.35;;
31424;SDS011;18054;51.572;7.372;2022-08-19T09:53:17;16.42;;;10.63;;
31424;SDS011;18054;51.572;7.372;2022-08-19T10:00:41;16.75;;;10.52;;
31424;SDS011;18054;51.572;7.372;2022-08-19T10:03:16;14.43;;;10.95;;
31424;SDS011;18054;51.572;7.372;2022-08-19T10:05:43;18.88;;;10.60;;
31424;SDS011;18054;51.572;7.372;2022-08-19T10:08:20;21.17;;;12.30;;
31424;SDS011;18054;51.572;7.372;2022-08-19T10:10:52;24.25;;;12.15;;
31424;SDS011;18054;51.572;7.372;2022-08-19T10:13:20;26.52;;;12.18;;
31424;SDS011;18054;51.572;7.372;2022-08-19T10:15:52;21.88;;;11.48;;
31424;SDS011;18054;51.572;7.372;2022-08-19T10:18:21;19.20;;;9.82;;
31424;SDS011;18054;51.572;7.372;2022-08-19T10:20:50;17.27;;;8.38;;
31424;SDS011;18054;51.572;7.372;2022-08-19T10:23:18;15.25;;;9.07;;
31424;SDS011;18054;51.572;7.372;2022-08-19T10:25:46;8.88;;;6.82;;
31424;SDS011;18054;51.572;7.372;2022-08-19T10:28:14;16.95;;;10.25;;
31424;SDS011;18054;51.572;7.372;2022-08-19T10:30:45;22.85;;;13.73;;
31424;SDS011;18054;51.572;7.372;2022-08-19T10:33:14;14.52;;;11.60;;
31424;SDS011;18054;51.572;7.372;2022-08-19T10:36:02;13.15;;;7.93;;
31424;SDS011;18054;51.572;7.372;2022-08-19T10:38:30;27.42;;;15.07;;
31424;SDS011;18054;51.572;7.372;2022-08-19T10:41:05;25.17;;;12.77;;
31424;SDS011;18054;51.572;7.372;2022-08-19T10:43:33;20.42;;;10.73;;
31424;SDS011;18054;51.572;7.372;2022-08-19T10:46:04;14.50;;;8.77;;
31424;SDS011;18054;51.572;7.372;2022-08-19T10:48:43;14.65;;;8.95;;
31424;SDS011;18054;51.572;7.372;2022-08-19T10:51:11;12.80;;;8.55;;
31424;SDS011;18054;51.572;7.372;2022-08-19T10:53:57;18.65;;;9.82;;
31424;SDS011;18054;51.572;7.372;2022-08-19T10:56:24;19.17;;;9.10;;
31424;SDS011;18054;51.572;7.372;2022-08-19T10:59:09;12.98;;;8.35;;
31424;SDS011;18054;51.572;7.372;2022-08-19T11:01:38;22.95;;;12.02;;
31424;SDS011;18054;51.572;7.372;2022-08-19T11:06:36;13.38;;;8.75;;
31424;SDS011;18054;51.572;7.372;2022-08-19T11:09:04;13.82;;;10.07;;
31424;SDS011;18054;51.572;7.372;2022-08-19T11:11:32;13.73;;;8.57;;
31424;SDS011;18054;51.572;7.372;2022-08-19T11:14:07;14.73;;;8.23;;
31424;SDS011;18054;51.572;7.372;2022-08-19T11:16:34;14.70;;;8.27;;
31424;SDS011;18054;51.572;7.372;2022-08-19T11:19:04;16.90;;;8.13;;
31424;SDS011;18054;51.572;7.372;2022-08-19T11:21:33;11.27;;;7.30;;
31424;SDS011;18054;51.572;7.372;2022-08-19T11:24:04;11.55;;;7.20;;
31424;SDS011;18054;51.572;7.372;2022-08-19T11:26:32;14.48;;;9.15;;
31424;SDS011;18054;51.572;7.372;2022-08-19T11:29:00;12.00;;;7.53;;
31424;SDS011;18054;51.572;7.372;2022-08-19T11:31:29;10.65;;;6.80;;
31424;SDS011;18054;51.572;7.372;2022-08-19T11:33:58;10.60;;;6.47;;
31424;SDS011;18054;51.572;7.372;2022-08-19T11:36:26;10.15;;;5.90;;
31424;SDS011;18054;51.572;7.372;2022-08-19T11:38:54;13.90;;;8.30;;
31424;SDS011;18054;51.572;7.372;2022-08-19T11:41:23;12.63;;;7.65;;
31424;SDS011;18054;51.572;7.372;2022-08-19T11:43:51;11.98;;;6.13;;
31424;SDS011;18054;51.572;7.372;2022-08-19T11:46:20;8.68;;;4.95;;
31424;SDS011;18054;51.572;7.372;2022-08-19T11:48:48;7.90;;;4.43;;
31424;SDS011;18054;51.572;7.372;2022-08-19T11:51:19;8.43;;;5.00;;
31424;SDS011;18054;51.572;7.372;2022-08-19T11:53:47;10.80;;;6.50;;
31424;SDS011;18054;51.572;7.372;2022-08-19T11:56:17;12.40;;;8.38;;
31424;SDS011;18054;51.572;7.372;2022-08-19T11:58:46;17.73;;;9.10;;
31424;SDS011;18054;51.572;7.372;2022-08-19T12:01:14;14.88;;;8.30;;
31424;SDS011;18054;51.572;7.372;2022-08-19T12:03:42;15.43;;;8.68;;
31424;SDS011;18054;51.572;7.372;2022-08-19T12:06:11;14.23;;;9.20;;
31424;SDS011;18054;51.572;7.372;2022-08-19T12:08:39;11.35;;;6.95;;
31424;SDS011;18054;51.572;7.372;2022-08-19T12:11:07;10.00;;;6.38;;
31424;SDS011;18054;51.572;7.372;2022-08-19T12:13:35;9.43;;;5.35;;
31424;SDS011;18054;51.572;7.372;2022-08-19T12:16:08;11.07;;;5.63;;
31424;SDS011;18054;51.572;7.372;2022-08-19T12:18:38;10.57;;;6.05;;
31424;SDS011;18054;51.572;7.372;2022-08-19T12:21:07;11.55;;;5.68;;
31424;SDS011;18054;51.572;7.372;2022-08-19T12:23:36;8.73;;;5.72;;
31424;SDS011;18054;51.572;7.372;2022-08-19T12:26:04;11.88;;;6.97;;
31424;SDS011;18054;51.572;7.372;2022-08-19T12:28:31;14.68;;;8.02;;
31424;SDS011;18054;51.572;7.372;2022-08-19T12:30:59;8.30;;;6.63;;
31424;SDS011;18054;51.572;7.372;2022-08-19T12:33:28;11.75;;;7.22;;
31424;SDS011;18054;51.572;7.372;2022-08-19T12:36:00;10.77;;;6.28;;
31424;SDS011;18054;51.572;7.372;2022-08-19T12:38:27;13.10;;;6.35;;
31424;SDS011;18054;51.572;7.372;2022-08-19T12:40:55;13.15;;;6.80;;
31424;SDS011;18054;51.572;7.372;2022-08-19T12:43:25;12.85;;;6.40;;
31424;SDS011;18054;51.572;7.372;2022-08-19T12:45:53;8.32;;;6.80;;
31424;SDS011;18054;51.572;7.372;2022-08-19T12:48:22;15.18;;;6.85;;
31424;SDS011;18054;51.572;7.372;2022-08-19T12:51:05;16.73;;;7.53;;
31424;SDS011;18054;51.572;7.372;2022-08-19T12:53:33;17.00;;;8.30;;
31424;SDS011;18054;51.572;7.372;2022-08-19T12:56:04;11.15;;;7.95;;
31424;SDS011;18054;51.572;7.372;2022-08-19T12:58:38;13.77;;;8.85;;
31424;SDS011;18054;51.572;7.372;2022-08-19T13:01:06;11.00;;;6.35;;
31424;SDS011;18054;51.572;7.372;2022-08-19T13:03:33;9.15;;;5.60;;
31424;SDS011;18054;51.572;7.372;2022-08-19T13:06:07;7.60;;;4.50;;
31424;SDS011;18054;51.572;7.372;2022-08-19T13:08:35;14.52;;;4.82;;
31424;SDS011;18054;51.572;7.372;2022-08-19T13:11:07;15.07;;;5.30;;
31424;SDS011;18054;51.572;7.372;2022-08-19T13:13:36;7.53;;;4.43;;
31424;SDS011;18054;51.572;7.372;2022-08-19T13:16:04;7.47;;;4.38;;
31424;SDS011;18054;51.572;7.372;2022-08-19T13:18:32;7.80;;;4.13;;
31424;SDS011;18054;51.572;7.372;2022-08-19T13:21:01;13.50;;;4.32;;
31424;SDS011;18054;51.572;7.372;2022-08-19T13:23:30;8.85;;;5.90;;
31424;SDS011;18054;51.572;7.372;2022-08-19T13:25:58;8.45;;;4.85;;
31424;SDS011;18054;51.572;7.372;2022-08-19T13:28:26;10.52;;;4.90;;
31424;SDS011;18054;51.572;7.372;2022-08-19T13:31:14;16.17;;;4.97;;
31424;SDS011;18054;51.572;7.372;2022-08-19T13:33:59;8.60;;;5.25;;
31424;SDS011;18054;51.572;7.372;2022-08-19T13:36:27;16.55;;;5.80;;
31424;SDS011;18054;51.572;7.372;2022-08-19T13:38:56;12.68;;;5.35;;
31424;SDS011;18054;51.572;7.372;2022-08-19T13:41:24;9.38;;;5.32;;
31424;SDS011;18054;51.572;7.372;2022-08-19T13:43:51;13.10;;;5.75;;
31424;SDS011;18054;51.572;7.372;2022-08-19T13:46:19;11.98;;;5.57;;
31424;SDS011;18054;51.572;7.372;2022-08-19T13:48:47;9.75;;;4.72;;
31424;SDS011;18054;51.572;7.372;2022-08-19T13:51:15;7.97;;;5.07;;
31424;SDS011;18054;51.572;7.372;2022-08-19T13:53:43;9.55;;;5.25;;
31424;SDS011;18054;51.572;7.372;2022-08-19T13:56:15;7.90;;;5.55;;
31424;SDS011;18054;51.572;7.372;2022-08-19T13:58:43;7.35;;;4.93;;
31424;SDS011;18054;51.572;7.372;2022-08-19T14:01:10;7.65;;;4.80;;
31424;SDS011;18054;51.572;7.372;2022-08-19T14:03:38;9.07;;;5.03;;
31424;SDS011;18054;51.572;7.372;2022-08-19T14:06:05;8.85;;;4.20;;
31424;SDS011;18054;51.572;7.372;2022-08-19T14:08:36;9.00;;;3.83;;
31424;SDS011;18054;51.572;7.372;2022-08-19T14:11:11;9.82;;;5.00;;
31424;SDS011;18054;51.572;7.372;2022-08-19T14:13:40;10.45;;;4.13;;
31424;SDS011;18054;51.572;7.372;2022-08-19T14:16:08;9.02;;;4.45;;
31424;SDS011;18054;51.572;7.372;2022-08-19T14:18:36;6.97;;;4.38;;
31424;SDS011;18054;51.572;7.372;2022-08-19T14:21:04;7.85;;;3.75;;
31424;SDS011;18054;51.572;7.372;2022-08-19T14:23:33;12.90;;;4.55;;
31424;SDS011;18054;51.572;7.372;2022-08-19T14:26:05;5.60;;;3.20;;
31424;SDS011;18054;51.572;7.372;2022-08-19T14:28:32;7.25;;;2.92;;
31424;SDS011;18054;51.572;7.372;2022-08-19T14:31:01;5.28;;;3.38;;
31424;SDS011;18054;51.572;7.372;2022-08-19T14:33:29;6.38;;;3.33;;
31424;SDS011;18054;51.572;7.372;2022-08-19T14:35:56;7.18;;;3.75;;
31424;SDS011;18054;51.572;7.372;2022-08-19T14:38:25;9.77;;;3.78;;
31424;SDS011;18054;51.572;7.372;2022-08-19T14:41:05;6.47;;;3.58;;
31424;SDS011;18054;51.572;7.372;2022-08-19T14:46:02;8.55;;;3.60;;
31424;SDS011;18054;51.572;7.372;2022-08-19T14:48:30;6.80;;;3.47;;
31424;SDS011;18054;51.572;7.372;2022-08-19T14:50:57;6.68;;;3.90;;
31424;SDS011;18054;51.572;7.372;2022-08-19T14:53:25;7.78;;;3.72;;
31424;SDS011;18054;51.572;7.372;2022-08-19T14:55:52;6.47;;;3.17;;
31424;SDS011;18054;51.572;7.372;2022-08-19T14:58:20;7.82;;;4.25;;
31424;SDS011;18054;51.572;7.372;2022-08-19T15:00:56;7.72;;;4.13;;
31424;SDS011;18054;51.572;7.372;2022-08-19T15:03:24;7.65;;;4.03;;
31424;SDS011;18054;51.572;7.372;2022-08-19T15:05:52;8.75;;;4.20;;
31424;SDS011;18054;51.572;7.372;2022-08-19T15:08:19;7.72;;;3.65;;
31424;SDS011;18054;51.572;7.372;2022-08-19T15:10:51;11.00;;;3.80;;
31424;SDS011;18054;51.572;7.372;2022-08-19T15:13:18;7.82;;;3.80;;
31424;SDS011;18054;51.572;7.372;2022-08-19T15:15:46;9.20;;;3.65;;
31424;SDS011;18054;51.572;7.372;2022-08-19T15:18:13;8.75;;;3.33;;
31424;SDS011;18054;51.572;7.372;2022-08-19T15:20:42;7.88;;;3.85;;
31424;SDS011;18054;51.572;7.372;2022-08-19T15:23:12;8.73;;;3.97;;
31424;SDS011;18054;51.572;7.372;2022-08-19T15:25:40;9.38;;;3.67;;
31424;SDS011;18054;51.572;7.372;2022-08-19T15:28:08;8.15;;;3.85;;
31424;SDS011;18054;51.572;7.372;2022-08-19T15:30:37;10.20;;;3.85;;